sensor_id;sensor_type;location;lat;lon;timestamp;pressure;altitude;pressure_sealevel;temperature;humidity
45040;BME280;30778;53.574;7.770;2022-09-27T00:01:04;99262.09;;;8.65;60.25
45040;BME280;30778;53.574;7.770;2022-09-27T00:03:30;99268.50;;;8.60;60.42
45040;BME280;30778;53.574;7.770;2022-09-27T00:08:34;99263.47;;;8.56;60.50
45040;BME280;30778;53.574;7.770;2022-09-27T00:11:01;99266.47;;;8.65;60.27
45040;BME280;30778;53.574;7.770;2022-09-27T00:13:27;99269.38;;;8.44;60.42
45040;BME280;30778;53.574;7.770;2022-09-27T00:16:00;99267.97;;;8.69;60.16
45040;BME280;30778;53.574;7.770;2022-09-27T00:18:26;99263.47;;;8.72;60.23
45040;BME280;30778;53.574;7.770;2022-09-27T00:20:52;99260.06;;;8.70;60.15
45040;BME280;30778;53.574;7.770;2022-09-27T00:23:18;99268.41;;;8.61;60.21
45040;BME280;30778;53.574;7.770;2022-09-27T00:25:57;99264.56;;;8.52;60.67
45040;BME280;30778;53.574;7.770;2022-09-27T00:28:23;99262.00;;;8.67;59.89
45040;BME280;30778;53.574;7.770;2022-09-27T00:30:48;99252.97;;;8.74;59.46
45040;BME280;30778;53.574;7.770;2022-09-27T00:33:14;99250.34;;;8.74;59.69
45040;BME280;30778;53.574;7.770;2022-09-27T00:35:39;99246.22;;;8.70;59.69
45040;BME280;30778;53.574;7.770;2022-09-27T00:38:05;99252.56;;;8.80;59.49
45040;BME280;30778;53.574;7.770;2022-09-27T00:40:31;99253.16;;;8.85;59.33
45040;BME280;30778;53.574;7.770;2022-09-27T00:42:57;99247.47;;;8.79;59.38
45040;BME280;30778;53.574;7.770;2022-09-27T00:45:22;99242.53;;;8.74;59.03
45040;BME280;30778;53.574;7.770;2022-09-27T00:47:58;99241.59;;;8.75;59.35
45040;BME280;30778;53.574;7.770;2022-09-27T00:53:03;99241.69;;;8.73;58.75
45040;BME280;30778;53.574;7.770;2022-09-27T00:55:37;99229.69;;;8.71;58.72
45040;BME280;30778;53.574;7.770;2022-09-27T00:58:05;99243.78;;;8.67;58.95
45040;BME280;30778;53.574;7.770;2022-09-27T01:00:31;99243.44;;;8.73;58.49
45040;BME280;30778;53.574;7.770;2022-09-27T01:02:57;99238.25;;;8.73;58.73
45040;BME280;30778;53.574;7.770;2022-09-27T01:05:24;99237.16;;;8.77;58.38
45040;BME280;30778;53.574;7.770;2022-09-27T01:07:51;99233.78;;;8.75;58.62
45040;BME280;30778;53.574;7.770;2022-09-27T01:10:22;99234.72;;;8.74;58.50
45040;BME280;30778;53.574;7.770;2022-09-27T01:12:57;99240.13;;;8.69;58.58
45040;BME280;30778;53.574;7.770;2022-09-27T01:15:39;99229.84;;;8.68;58.43
45040;BME280;30778;53.574;7.770;2022-09-27T01:18:24;99237.34;;;8.74;58.53
45040;BME280;30778;53.574;7.770;2022-09-27T01:29:31;99235.88;;;8.68;58.43
45040;BME280;30778;53.574;7.770;2022-09-27T01:37:50;99238.56;;;8.67;58.40
45040;BME280;30778;53.574;7.770;2022-09-27T01:40:30;99235.75;;;8.55;58.52
45040;BME280;30778;53.574;7.770;2022-09-27T01:43:23;99237.56;;;8.39;58.70
45040;BME280;30778;53.574;7.770;2022-09-27T01:46:03;99238.84;;;8.32;58.81
45040;BME280;30778;53.574;7.770;2022-09-27T01:48:57;99244.16;;;8.45;58.84
45040;BME280;30778;53.574;7.770;2022-09-27T01:51:31;99242.53;;;8.28;58.96
45040;BME280;30778;53.574;7.770;2022-09-27T01:54:04;99251.91;;;8.46;58.64
45040;BME280;30778;53.574;7.770;2022-09-27T01:56:51;99243.34;;;8.44;58.76
45040;BME280;30778;53.574;7.770;2022-09-27T01:59:44;99259.28;;;8.54;58.63
45040;BME280;30778;53.574;7.770;2022-09-27T02:02:47;99252.31;;;8.54;58.89
45040;BME280;30778;53.574;7.770;2022-09-27T02:05:53;99253.88;;;8.57;58.62
45040;BME280;30778;53.574;7.770;2022-09-27T02:08:43;99239.66;;;8.32;58.98
45040;BME280;30778;53.574;7.770;2022-09-27T02:11:20;99234.69;;;8.44;59.12
45040;BME280;30778;53.574;7.770;2022-09-27T02:14:04;99231.78;;;8.18;59.39
45040;BME280;30778;53.574;7.770;2022-09-27T02:16:48;99234.38;;;8.34;59.29
45040;BME280;30778;53.574;7.770;2022-09-27T02:22:21;99230.81;;;8.05;60.13
45040;BME280;30778;53.574;7.770;2022-09-27T02:24:55;99230.91;;;8.33;59.19
45040;BME280;30778;53.574;7.770;2022-09-27T02:30:25;99227.44;;;8.19;59.57
45040;BME280;30778;53.574;7.770;2022-09-27T02:32:59;99223.75;;;8.23;59.69
45040;BME280;30778;53.574;7.770;2022-09-27T02:35:28;99236.56;;;8.26;59.65
45040;BME280;30778;53.574;7.770;2022-09-27T02:37:56;99233.56;;;8.18;59.97
45040;BME280;30778;53.574;7.770;2022-09-27T02:40:23;99261.84;;;8.24;59.64
45040;BME280;30778;53.574;7.770;2022-09-27T02:42:50;99251.78;;;8.18;60.04
45040;BME280;30778;53.574;7.770;2022-09-27T02:45:17;99255.66;;;8.10;60.21
45040;BME280;30778;53.574;7.770;2022-09-27T02:50:52;99245.75;;;8.01;60.35
45040;BME280;30778;53.574;7.770;2022-09-27T03:00:05;99243.31;;;7.82;59.89
45040;BME280;30778;53.574;7.770;2022-09-27T03:03:06;99243.47;;;7.95;59.67
45040;BME280;30778;53.574;7.770;2022-09-27T03:05:51;99247.25;;;8.05;59.30
45040;BME280;30778;53.574;7.770;2022-09-27T03:08:19;99247.34;;;8.04;59.30
45040;BME280;30778;53.574;7.770;2022-09-27T03:10:45;99239.03;;;7.97;59.69
45040;BME280;30778;53.574;7.770;2022-09-27T03:13:11;99232.25;;;7.79;60.40
45040;BME280;30778;53.574;7.770;2022-09-27T03:15:37;99237.94;;;8.01;59.91
45040;BME280;30778;53.574;7.770;2022-09-27T03:18:02;99239.97;;;8.12;59.78
45040;BME280;30778;53.574;7.770;2022-09-27T03:20:28;99240.38;;;8.04;60.06
45040;BME280;30778;53.574;7.770;2022-09-27T03:23:03;99241.63;;;8.13;59.44
45040;BME280;30778;53.574;7.770;2022-09-27T03:25:29;99237.25;;;8.13;59.49
45040;BME280;30778;53.574;7.770;2022-09-27T03:27:54;99239.22;;;7.94;60.13
45040;BME280;30778;53.574;7.770;2022-09-27T03:30:20;99234.81;;;8.10;59.83
45040;BME280;30778;53.574;7.770;2022-09-27T03:32:46;99236.34;;;8.14;59.81
45040;BME280;30778;53.574;7.770;2022-09-27T03:35:30;99236.84;;;8.05;59.97
45040;BME280;30778;53.574;7.770;2022-09-27T03:37:55;99232.78;;;8.15;59.75
45040;BME280;30778;53.574;7.770;2022-09-27T03:40:21;99232.97;;;8.12;59.81
45040;BME280;30778;53.574;7.770;2022-09-27T03:42:47;99230.03;;;8.19;59.58
45040;BME280;30778;53.574;7.770;2022-09-27T03:45:14;99237.19;;;7.99;60.22
45040;BME280;30778;53.574;7.770;2022-09-27T03:47:40;99245.25;;;7.94;60.07
45040;BME280;30778;53.574;7.770;2022-09-27T03:50:07;99251.22;;;7.97;60.46
45040;BME280;30778;53.574;7.770;2022-09-27T03:52:33;99234.00;;;7.94;60.26
45040;BME280;30778;53.574;7.770;2022-09-27T03:54:59;99244.41;;;7.94;60.26
45040;BME280;30778;53.574;7.770;2022-09-27T03:57:24;99239.19;;;7.62;60.94
45040;BME280;30778;53.574;7.770;2022-09-27T03:59:49;99237.59;;;7.76;60.80
45040;BME280;30778;53.574;7.770;2022-09-27T04:02:42;99237.84;;;7.71;60.86
45040;BME280;30778;53.574;7.770;2022-09-27T04:05:24;99232.81;;;7.68;60.93
45040;BME280;30778;53.574;7.770;2022-09-27T04:08:10;99239.03;;;7.97;60.12
45040;BME280;30778;53.574;7.770;2022-09-27T04:10:36;99235.75;;;8.09;60.00
45040;BME280;30778;53.574;7.770;2022-09-27T04:13:03;99235.41;;;8.15;59.49
45040;BME280;30778;53.574;7.770;2022-09-27T04:15:33;99232.47;;;8.06;59.75
45040;BME280;30778;53.574;7.770;2022-09-27T04:18:34;99231.13;;;8.14;59.39
45040;BME280;30778;53.574;7.770;2022-09-27T04:21:15;99223.25;;;8.16;59.31
45040;BME280;30778;53.574;7.770;2022-09-27T04:23:47;99221.88;;;8.25;59.27
45040;BME280;30778;53.574;7.770;2022-09-27T04:26:16;99227.19;;;8.23;59.30
45040;BME280;30778;53.574;7.770;2022-09-27T04:28:52;99224.09;;;8.17;58.72
45040;BME280;30778;53.574;7.770;2022-09-27T04:31:18;99226.78;;;7.99;59.58
45040;BME280;30778;53.574;7.770;2022-09-27T04:34:20;99228.81;;;7.94;59.92
45040;BME280;30778;53.574;7.770;2022-09-27T04:37:06;99218.53;;;8.07;59.57
45040;BME280;30778;53.574;7.770;2022-09-27T04:39:37;99223.84;;;7.89;59.85
45040;BME280;30778;53.574;7.770;2022-09-27T04:42:04;99223.25;;;8.00;59.84
45040;BME280;30778;53.574;7.770;2022-09-27T04:44:30;99225.13;;;7.98;59.77
45040;BME280;30778;53.574;7.770;2022-09-27T04:46:55;99228.81;;;7.94;59.91
45040;BME280;30778;53.574;7.770;2022-09-27T04:49:21;99224.03;;;7.53;61.15
45040;BME280;30778;53.574;7.770;2022-09-27T04:51:47;99234.16;;;7.91;60.24
45040;BME280;30778;53.574;7.770;2022-09-27T04:54:13;99234.41;;;7.86;60.19
45040;BME280;30778;53.574;7.770;2022-09-27T04:56:47;99237.88;;;8.03;59.56
45040;BME280;30778;53.574;7.770;2022-09-27T04:59:13;99244.16;;;8.14;59.65
45040;BME280;30778;53.574;7.770;2022-09-27T05:01:40;99232.97;;;8.12;59.45
45040;BME280;30778;53.574;7.770;2022-09-27T05:04:18;99240.38;;;8.04;59.53
45040;BME280;30778;53.574;7.770;2022-09-27T05:06:47;99237.38;;;7.80;60.48
45040;BME280;30778;53.574;7.770;2022-09-27T05:09:22;99246.25;;;7.92;60.14
45040;BME280;30778;53.574;7.770;2022-09-27T05:11:54;99246.91;;;7.64;60.64
45040;BME280;30778;53.574;7.770;2022-09-27T05:14:39;99252.97;;;7.96;59.73
45040;BME280;30778;53.574;7.770;2022-09-27T05:17:20;99262.63;;;7.94;59.90
45040;BME280;30778;53.574;7.770;2022-09-27T05:19:47;99257.56;;;7.91;59.95
45040;BME280;30778;53.574;7.770;2022-09-27T05:22:21;99249.75;;;7.75;60.08
45040;BME280;30778;53.574;7.770;2022-09-27T05:24:50;99243.06;;;7.87;59.88
45040;BME280;30778;53.574;7.770;2022-09-27T05:27:16;99241.38;;;7.86;60.27
45040;BME280;30778;53.574;7.770;2022-09-27T05:29:45;99242.72;;;7.77;60.10
45040;BME280;30778;53.574;7.770;2022-09-27T05:32:17;99250.63;;;7.91;59.56
45040;BME280;30778;53.574;7.770;2022-09-27T05:34:46;99246.75;;;7.83;59.65
45040;BME280;30778;53.574;7.770;2022-09-27T05:37:11;99250.44;;;7.94;59.79
45040;BME280;30778;53.574;7.770;2022-09-27T05:39:40;99252.03;;;7.97;59.68
45040;BME280;30778;53.574;7.770;2022-09-27T05:42:06;99258.00;;;7.99;59.38
45040;BME280;30778;53.574;7.770;2022-09-27T05:44:35;99250.97;;;7.85;59.67
45040;BME280;30778;53.574;7.770;2022-09-27T05:47:02;99243.53;;;7.62;60.19
45040;BME280;30778;53.574;7.770;2022-09-27T05:49:30;99245.66;;;7.71;60.08
45040;BME280;30778;53.574;7.770;2022-09-27T05:51:56;99259.31;;;7.59;60.08
45040;BME280;30778;53.574;7.770;2022-09-27T05:54:23;99253.31;;;7.74;59.54
45040;BME280;30778;53.574;7.770;2022-09-27T05:56:53;99255.47;;;7.82;59.57
45040;BME280;30778;53.574;7.770;2022-09-27T05:59:28;99270.56;;;7.59;60.23
45040;BME280;30778;53.574;7.770;2022-09-27T06:02:12;99262.16;;;7.03;61.85
45040;BME280;30778;53.574;7.770;2022-09-27T06:05:01;99262.59;;;7.29;61.39
45040;BME280;30778;53.574;7.770;2022-09-27T06:08:02;99275.25;;;7.68;60.29
45040;BME280;30778;53.574;7.770;2022-09-27T06:10:34;99273.84;;;7.63;60.44
45040;BME280;30778;53.574;7.770;2022-09-27T06:13:04;99271.25;;;7.12;62.18
45040;BME280;30778;53.574;7.770;2022-09-27T06:15:36;99277.84;;;7.35;61.38
45040;BME280;30778;53.574;7.770;2022-09-27T06:18:05;99271.84;;;7.50;61.30
45040;BME280;30778;53.574;7.770;2022-09-27T06:20:33;99275.56;;;7.62;60.73
45040;BME280;30778;53.574;7.770;2022-09-27T06:23:19;99276.59;;;7.60;60.75
45040;BME280;30778;53.574;7.770;2022-09-27T06:25:47;99267.72;;;7.64;60.90
45040;BME280;30778;53.574;7.770;2022-09-27T06:28:18;99258.25;;;7.79;60.44
45040;BME280;30778;53.574;7.770;2022-09-27T06:30:48;99265.56;;;7.88;60.02
45040;BME280;30778;53.574;7.770;2022-09-27T06:33:26;99270.94;;;7.85;59.88
45040;BME280;30778;53.574;7.770;2022-09-27T06:36:00;99275.44;;;7.97;59.50
45040;BME280;30778;53.574;7.770;2022-09-27T06:38:26;99276.66;;;8.07;59.58
45040;BME280;30778;53.574;7.770;2022-09-27T06:41:11;99298.53;;;7.54;60.69
45040;BME280;30778;53.574;7.770;2022-09-27T06:43:55;99291.28;;;7.43;60.77
45040;BME280;30778;53.574;7.770;2022-09-27T06:46:39;99297.69;;;7.53;60.34
45040;BME280;30778;53.574;7.770;2022-09-27T06:49:22;99302.34;;;7.64;60.29
45040;BME280;30778;53.574;7.770;2022-09-27T06:51:50;99313.06;;;7.91;59.55
45040;BME280;30778;53.574;7.770;2022-09-27T06:54:17;99310.66;;;7.71;59.88
45040;BME280;30778;53.574;7.770;2022-09-27T06:56:46;99313.53;;;7.82;59.83
45040;BME280;30778;53.574;7.770;2022-09-27T06:59:11;99321.38;;;7.98;59.41
45040;BME280;30778;53.574;7.770;2022-09-27T07:02:22;99322.47;;;7.94;59.42
45040;BME280;30778;53.574;7.770;2022-09-27T07:05:08;99311.81;;;8.14;58.80
45040;BME280;30778;53.574;7.770;2022-09-27T07:07:44;99316.75;;;7.87;60.09
45040;BME280;30778;53.574;7.770;2022-09-27T07:10:11;99311.63;;;8.18;59.09
45040;BME280;30778;53.574;7.770;2022-09-27T07:12:37;99314.47;;;7.81;59.82
45040;BME280;30778;53.574;7.770;2022-09-27T07:15:03;99332.88;;;7.94;59.84
45040;BME280;30778;53.574;7.770;2022-09-27T07:17:29;99332.59;;;7.83;60.02
45040;BME280;30778;53.574;7.770;2022-09-27T07:19:56;99326.78;;;7.78;60.42
45040;BME280;30778;53.574;7.770;2022-09-27T07:22:21;99341.34;;;8.13;59.43
45040;BME280;30778;53.574;7.770;2022-09-27T07:24:54;99336.91;;;8.15;59.35
45040;BME280;30778;53.574;7.770;2022-09-27T07:27:20;99339.34;;;8.19;59.21
45040;BME280;30778;53.574;7.770;2022-09-27T07:29:46;99339.59;;;7.98;59.50
45040;BME280;30778;53.574;7.770;2022-09-27T07:32:12;99345.81;;;8.11;59.11
45040;BME280;30778;53.574;7.770;2022-09-27T07:34:38;99338.75;;;8.45;58.33
45040;BME280;30778;53.574;7.770;2022-09-27T07:37:04;99340.94;;;8.05;59.08
45040;BME280;30778;53.574;7.770;2022-09-27T07:39:33;99334.38;;;7.98;59.55
45040;BME280;30778;53.574;7.770;2022-09-27T07:42:01;99339.28;;;8.36;58.61
45040;BME280;30778;53.574;7.770;2022-09-27T07:44:27;99334.06;;;8.36;58.66
45040;BME280;30778;53.574;7.770;2022-09-27T07:47:15;99338.75;;;8.61;58.50
45040;BME280;30778;53.574;7.770;2022-09-27T07:49:59;99337.84;;;8.30;58.86
45040;BME280;30778;53.574;7.770;2022-09-27T07:52:42;99350.00;;;8.30;58.71
45040;BME280;30778;53.574;7.770;2022-09-27T07:55:40;99357.38;;;8.85;57.85
45040;BME280;30778;53.574;7.770;2022-09-27T07:58:19;99377.69;;;8.63;57.68
45040;BME280;30778;53.574;7.770;2022-09-27T08:00:45;99363.28;;;8.41;58.18
45040;BME280;30778;53.574;7.770;2022-09-27T08:03:14;99376.13;;;8.28;58.87
45040;BME280;30778;53.574;7.770;2022-09-27T08:05:42;99378.38;;;8.50;58.39
45040;BME280;30778;53.574;7.770;2022-09-27T08:08:08;99371.25;;;8.54;58.08
45040;BME280;30778;53.574;7.770;2022-09-27T08:10:34;99375.59;;;8.38;58.60
45040;BME280;30778;53.574;7.770;2022-09-27T08:13:01;99371.06;;;8.09;59.47
45040;BME280;30778;53.574;7.770;2022-09-27T08:15:30;99371.50;;;8.49;58.79
45040;BME280;30778;53.574;7.770;2022-09-27T08:17:56;99380.31;;;8.63;57.95
45040;BME280;30778;53.574;7.770;2022-09-27T08:20:41;99390.31;;;8.70;58.13
45040;BME280;30778;53.574;7.770;2022-09-27T08:23:23;99395.78;;;8.50;58.24
45040;BME280;30778;53.574;7.770;2022-09-27T08:26:03;99398.03;;;8.40;58.71
45040;BME280;30778;53.574;7.770;2022-09-27T08:28:49;99404.88;;;8.43;59.12
45040;BME280;30778;53.574;7.770;2022-09-27T08:31:18;99407.78;;;8.68;58.24
45040;BME280;30778;53.574;7.770;2022-09-27T08:33:48;99402.06;;;8.62;58.56
45040;BME280;30778;53.574;7.770;2022-09-27T08:36:14;99405.19;;;8.84;57.97
45040;BME280;30778;53.574;7.770;2022-09-27T08:38:39;99402.56;;;8.68;57.70
45040;BME280;30778;53.574;7.770;2022-09-27T08:41:11;99398.72;;;8.75;57.81
45040;BME280;30778;53.574;7.770;2022-09-27T08:43:48;99396.03;;;8.77;56.58
45040;BME280;30778;53.574;7.770;2022-09-27T08:46:52;99387.28;;;8.78;57.44
45040;BME280;30778;53.574;7.770;2022-09-27T08:49:30;99381.41;;;8.59;57.34
45040;BME280;30778;53.574;7.770;2022-09-27T08:51:58;99392.16;;;8.68;57.67
45040;BME280;30778;53.574;7.770;2022-09-27T08:54:29;99387.38;;;8.61;58.25
45040;BME280;30778;53.574;7.770;2022-09-27T08:57:04;99383.88;;;9.08;56.76
45040;BME280;30778;53.574;7.770;2022-09-27T08:59:40;99386.44;;;8.93;57.89
45040;BME280;30778;53.574;7.770;2022-09-27T09:02:17;99387.16;;;9.56;57.06
45040;BME280;30778;53.574;7.770;2022-09-27T09:04:50;99384.81;;;9.82;56.13
45040;BME280;30778;53.574;7.770;2022-09-27T09:07:41;99384.59;;;9.99;55.06
45040;BME280;30778;53.574;7.770;2022-09-27T09:10:38;99396.66;;;10.43;55.66
45040;BME280;30778;53.574;7.770;2022-09-27T09:19:36;99400.78;;;9.61;56.50
45040;BME280;30778;53.574;7.770;2022-09-27T09:22:36;99406.06;;;10.60;55.73
45040;BME280;30778;53.574;7.770;2022-09-27T09:25:13;99403.97;;;10.65;54.80
45040;BME280;30778;53.574;7.770;2022-09-27T09:28:03;99407.97;;;10.85;54.55
45040;BME280;30778;53.574;7.770;2022-09-27T09:33:28;99409.56;;;10.73;55.18
45040;BME280;30778;53.574;7.770;2022-09-27T09:41:06;99418.91;;;10.21;52.40
45040;BME280;30778;53.574;7.770;2022-09-27T09:43:46;99421.25;;;10.68;52.76
45040;BME280;30778;53.574;7.770;2022-09-27T09:46:21;99425.63;;;11.21;51.69
45040;BME280;30778;53.574;7.770;2022-09-27T09:48:57;99428.69;;;11.28;51.40
45040;BME280;30778;53.574;7.770;2022-09-27T09:51:37;99428.97;;;11.63;50.38
45040;BME280;30778;53.574;7.770;2022-09-27T09:54:17;99420.28;;;11.76;49.34
45040;BME280;30778;53.574;7.770;2022-09-27T09:56:47;99421.34;;;11.73;50.64
45040;BME280;30778;53.574;7.770;2022-09-27T10:02:25;99414.22;;;12.01;51.17
45040;BME280;30778;53.574;7.770;2022-09-27T10:04:57;99404.22;;;12.68;48.64
45040;BME280;30778;53.574;7.770;2022-09-27T10:07:24;99415.56;;;12.69;48.91
45040;BME280;30778;53.574;7.770;2022-09-27T10:09:52;99405.75;;;11.97;50.36
45040;BME280;30778;53.574;7.770;2022-09-27T10:12:42;99403.94;;;11.72;48.52
45040;BME280;30778;53.574;7.770;2022-09-27T10:15:13;99398.09;;;11.56;50.07
45040;BME280;30778;53.574;7.770;2022-09-27T10:17:41;99408.75;;;11.40;50.37
45040;BME280;30778;53.574;7.770;2022-09-27T10:20:34;99410.88;;;11.73;49.74
45040;BME280;30778;53.574;7.770;2022-09-27T10:23:11;99415.69;;;11.79;50.13
45040;BME280;30778;53.574;7.770;2022-09-27T10:26:03;99422.41;;;13.31;49.85
45040;BME280;30778;53.574;7.770;2022-09-27T10:28:42;99415.16;;;14.26;45.09
45040;BME280;30778;53.574;7.770;2022-09-27T10:31:13;99418.72;;;14.70;44.38
45040;BME280;30778;53.574;7.770;2022-09-27T10:34:01;99420.41;;;14.49;42.51
45040;BME280;30778;53.574;7.770;2022-09-27T10:36:35;99408.94;;;14.93;43.36
45040;BME280;30778;53.574;7.770;2022-09-27T10:39:04;99411.53;;;15.05;41.64
45040;BME280;30778;53.574;7.770;2022-09-27T10:41:39;99418.97;;;14.56;43.30
45040;BME280;30778;53.574;7.770;2022-09-27T10:46:42;99436.59;;;12.43;44.78
45040;BME280;30778;53.574;7.770;2022-09-27T10:49:30;99454.25;;;11.10;46.64
45040;BME280;30778;53.574;7.770;2022-09-27T10:52:01;99447.22;;;9.85;48.88
45040;BME280;30778;53.574;7.770;2022-09-27T10:54:30;99440.63;;;10.08;50.43
45040;BME280;30778;53.574;7.770;2022-09-27T10:57:02;99449.66;;;8.97;53.70
45040;BME280;30778;53.574;7.770;2022-09-27T10:59:29;99455.75;;;9.28;53.13
45040;BME280;30778;53.574;7.770;2022-09-27T11:01:56;99454.63;;;9.32;53.80
45040;BME280;30778;53.574;7.770;2022-09-27T11:04:34;99452.19;;;8.98;53.86
45040;BME280;30778;53.574;7.770;2022-09-27T11:09:42;99459.16;;;8.82;55.04
45040;BME280;30778;53.574;7.770;2022-09-27T11:12:11;99460.13;;;9.11;54.44
45040;BME280;30778;53.574;7.770;2022-09-27T11:14:37;99462.16;;;9.67;54.23
45040;BME280;30778;53.574;7.770;2022-09-27T11:17:26;99454.44;;;10.24;54.06
45040;BME280;30778;53.574;7.770;2022-09-27T11:20:20;99454.72;;;11.17;53.66
45040;BME280;30778;53.574;7.770;2022-09-27T11:23:15;99457.47;;;12.19;52.08
45040;BME280;30778;53.574;7.770;2022-09-27T11:33:57;99461.78;;;11.29;49.83
45040;BME280;30778;53.574;7.770;2022-09-27T11:36:42;99461.50;;;10.51;51.63
45040;BME280;30778;53.574;7.770;2022-09-27T11:39:21;99461.44;;;10.24;52.03
45040;BME280;30778;53.574;7.770;2022-09-27T11:42:09;99462.09;;;10.13;52.50
45040;BME280;30778;53.574;7.770;2022-09-27T11:45:14;99453.38;;;10.12;52.42
45040;BME280;30778;53.574;7.770;2022-09-27T11:47:59;99458.25;;;10.18;54.04
45040;BME280;30778;53.574;7.770;2022-09-27T11:50:49;99455.81;;;9.87;54.52
45040;BME280;30778;53.574;7.770;2022-09-27T12:01:53;99444.44;;;10.31;54.65
45040;BME280;30778;53.574;7.770;2022-09-27T12:10:03;99451.22;;;11.43;51.50
45040;BME280;30778;53.574;7.770;2022-09-27T12:12:35;99442.75;;;11.80;51.97
45040;BME280;30778;53.574;7.770;2022-09-27T12:15:24;99447.66;;;12.60;47.15
45040;BME280;30778;53.574;7.770;2022-09-27T12:18:01;99451.47;;;13.17;47.19
45040;BME280;30778;53.574;7.770;2022-09-27T12:20:34;99443.47;;;13.53;45.73
45040;BME280;30778;53.574;7.770;2022-09-27T12:25:54;99440.25;;;13.97;43.00
45040;BME280;30778;53.574;7.770;2022-09-27T12:28:40;99454.56;;;13.92;45.75
45040;BME280;30778;53.574;7.770;2022-09-27T12:31:40;99457.91;;;13.24;44.00
45040;BME280;30778;53.574;7.770;2022-09-27T12:34:34;99443.75;;;13.62;42.83
45040;BME280;30778;53.574;7.770;2022-09-27T12:37:07;99441.31;;;14.17;43.00
45040;BME280;30778;53.574;7.770;2022-09-27T12:39:42;99451.84;;;14.94;42.09
45040;BME280;30778;53.574;7.770;2022-09-27T12:42:32;99451.81;;;15.05;42.43
45040;BME280;30778;53.574;7.770;2022-09-27T12:45:14;99456.00;;;14.64;41.94
45040;BME280;30778;53.574;7.770;2022-09-27T12:50:44;99467.53;;;13.36;43.59
45040;BME280;30778;53.574;7.770;2022-09-27T12:53:22;99464.16;;;11.72;46.13
45040;BME280;30778;53.574;7.770;2022-09-27T12:56:01;99463.63;;;11.67;48.05
45040;BME280;30778;53.574;7.770;2022-09-27T13:06:49;99476.56;;;10.74;49.06
45040;BME280;30778;53.574;7.770;2022-09-27T13:12:23;99474.66;;;10.20;48.69
45040;BME280;30778;53.574;7.770;2022-09-27T13:15:01;99486.94;;;9.90;49.14
45040;BME280;30778;53.574;7.770;2022-09-27T13:17:34;99486.75;;;9.32;50.63
45040;BME280;30778;53.574;7.770;2022-09-27T13:22:57;99489.75;;;8.94;52.24
45040;BME280;30778;53.574;7.770;2022-09-27T13:34:53;99480.59;;;10.66;51.65
45040;BME280;30778;53.574;7.770;2022-09-27T13:48:59;99483.25;;;12.25;46.96
45040;BME280;30778;53.574;7.770;2022-09-27T13:51:45;99472.91;;;12.11;46.49
45040;BME280;30778;53.574;7.770;2022-09-27T13:57:01;99476.31;;;11.73;46.78
45040;BME280;30778;53.574;7.770;2022-09-27T14:02:33;99483.00;;;10.97;48.37
45040;BME280;30778;53.574;7.770;2022-09-27T14:05:01;99474.63;;;11.32;48.31
45040;BME280;30778;53.574;7.770;2022-09-27T14:07:49;99483.22;;;11.34;48.97
45040;BME280;30778;53.574;7.770;2022-09-27T14:10:18;99483.44;;;11.31;48.45
45040;BME280;30778;53.574;7.770;2022-09-27T14:12:51;99489.81;;;10.86;48.60
45040;BME280;30778;53.574;7.770;2022-09-27T14:15:23;99483.56;;;10.74;49.29
45040;BME280;30778;53.574;7.770;2022-09-27T14:17:52;99492.38;;;10.73;49.33
45040;BME280;30778;53.574;7.770;2022-09-27T14:22:56;99489.50;;;9.75;51.53
45040;BME280;30778;53.574;7.770;2022-09-27T14:25:27;99487.53;;;10.24;51.38
45040;BME280;30778;53.574;7.770;2022-09-27T14:27:53;99485.84;;;10.37;50.19
45040;BME280;30778;53.574;7.770;2022-09-27T14:30:28;99497.41;;;10.47;50.03
45040;BME280;30778;53.574;7.770;2022-09-27T14:33:27;99489.19;;;10.39;50.65
45040;BME280;30778;53.574;7.770;2022-09-27T14:35:53;99486.59;;;10.25;51.09
45040;BME280;30778;53.574;7.770;2022-09-27T14:38:37;99500.41;;;10.55;51.13
45040;BME280;30778;53.574;7.770;2022-09-27T14:41:35;99498.53;;;10.29;50.06
45040;BME280;30778;53.574;7.770;2022-09-27T14:44:03;99502.56;;;10.20;50.94
45040;BME280;30778;53.574;7.770;2022-09-27T14:46:36;99502.97;;;9.84;51.15
45040;BME280;30778;53.574;7.770;2022-09-27T14:49:19;99499.41;;;9.85;52.26
45040;BME280;30778;53.574;7.770;2022-09-27T14:51:54;99507.63;;;9.32;53.13
45040;BME280;30778;53.574;7.770;2022-09-27T14:54:26;99503.34;;;9.00;53.72
45040;BME280;30778;53.574;7.770;2022-09-27T14:56:55;99506.28;;;8.93;53.82
45040;BME280;30778;53.574;7.770;2022-09-27T14:59:32;99503.09;;;9.04;52.30
45040;BME280;30778;53.574;7.770;2022-09-27T15:02:01;99508.91;;;8.77;53.19
45040;BME280;30778;53.574;7.770;2022-09-27T15:04:30;99505.38;;;9.10;53.62
45040;BME280;30778;53.574;7.770;2022-09-27T15:06:57;99513.19;;;9.10;52.83
45040;BME280;30778;53.574;7.770;2022-09-27T15:09:25;99527.38;;;9.21;53.10
45040;BME280;30778;53.574;7.770;2022-09-27T15:11:55;99518.41;;;8.94;53.36
45040;BME280;30778;53.574;7.770;2022-09-27T15:14:25;99520.09;;;8.80;53.43
45040;BME280;30778;53.574;7.770;2022-09-27T15:16:53;99521.47;;;8.69;53.85
45040;BME280;30778;53.574;7.770;2022-09-27T15:19:26;99533.66;;;8.69;54.72
45040;BME280;30778;53.574;7.770;2022-09-27T15:21:54;99523.44;;;8.48;54.51
45040;BME280;30778;53.574;7.770;2022-09-27T15:24:39;99535.16;;;8.24;55.62
45040;BME280;30778;53.574;7.770;2022-09-27T15:27:19;99530.06;;;8.38;56.27
45040;BME280;30778;53.574;7.770;2022-09-27T15:29:51;99529.63;;;8.30;56.29
45040;BME280;30778;53.574;7.770;2022-09-27T15:32:19;99526.50;;;8.56;55.89
45040;BME280;30778;53.574;7.770;2022-09-27T15:34:45;99534.63;;;8.50;56.27
45040;BME280;30778;53.574;7.770;2022-09-27T15:37:35;99533.28;;;8.43;56.14
45040;BME280;30778;53.574;7.770;2022-09-27T15:45:32;99534.13;;;8.77;55.13
45040;BME280;30778;53.574;7.770;2022-09-27T15:48:12;99533.88;;;8.97;54.34
45040;BME280;30778;53.574;7.770;2022-09-27T15:50:38;99545.50;;;9.08;54.17
45040;BME280;30778;53.574;7.770;2022-09-27T15:53:05;99542.63;;;8.96;54.09
45040;BME280;30778;53.574;7.770;2022-09-27T15:55:32;99540.75;;;8.83;54.70
45040;BME280;30778;53.574;7.770;2022-09-27T15:58:01;99540.41;;;8.73;55.34
45040;BME280;30778;53.574;7.770;2022-09-27T16:00:28;99542.78;;;8.77;55.52